Time;durP1;ratioP1;P1;durP2;ratioP2;P2;SDS_P1;SDS_P2;PMS_P1;PMS_P2;Temp;Humidity;BMP_temperature;BMP_pressure;BME280_temperature;BME280_humidity;BME280_pressure;Samples;Min_cycle;Max_cycle;Signal;HPM_P1;HPM_P2
2021/10/14 00:01:30;;;;;;;7.90;6.43;;;;;;;8.82;100.00;101963.31;4942498;28;20034;-73
2021/10/14 00:03:55;;;;;;;11.05;6.70;;;;;;;8.85;100.00;101965.69;4919662;29;20046;-72
2021/10/14 00:06:20;;;;;;;10.32;7.70;;;;;;;8.85;100.00;101958.69;4950106;28;20127;-72
2021/10/14 00:08:46;;;;;;;13.63;7.97;;;;;;;8.88;100.00;101953.25;4932832;28;20382;-72
2021/10/14 00:11:11;;;;;;;10.65;7.82;;;;;;;8.88;100.00;101960.25;4966349;28;20035;-73
2021/10/14 00:13:37;;;;;;;10.43;7.93;;;;;;;8.88;100.00;101950.63;4966106;28;20126;-73
2021/10/14 00:16:03;;;;;;;12.27;8.35;;;;;;;8.91;100.00;101960.03;4931545;29;20031;-73
2021/10/14 00:18:30;;;;;;;13.98;9.30;;;;;;;8.91;100.00;101952.19;4948721;28;20041;-71
2021/10/14 00:20:56;;;;;;;16.65;9.50;;;;;;;8.92;100.00;101953.88;4932007;29;20047;-73
2021/10/14 00:23:21;;;;;;;12.95;9.95;;;;;;;8.96;100.00;101961.38;4921596;28;20452;-72
2021/10/14 00:25:47;;;;;;;14.18;9.38;;;;;;;8.97;100.00;101967.47;4945432;28;20057;-72
2021/10/14 00:28:12;;;;;;;13.13;10.07;;;;;;;8.98;100.00;101952.59;4929403;28;20566;-71
2021/10/14 00:30:38;;;;;;;16.17;10.32;;;;;;;9.00;100.00;101955.97;4938047;28;20039;-73
2021/10/14 00:33:03;;;;;;;15.27;10.15;;;;;;;9.00;100.00;101953.34;4962180;28;20042;-71
2021/10/14 00:35:29;;;;;;;12.68;8.80;;;;;;;9.02;100.00;101951.44;4948605;28;20045;-73
2021/10/14 00:37:54;;;;;;;13.23;10.25;;;;;;;9.03;100.00;101951.34;4961346;28;20404;-73
2021/10/14 00:40:23;;;;;;;15.45;10.30;;;;;;;9.03;100.00;101942.66;4965807;28;20042;-72
2021/10/14 00:42:50;;;;;;;13.52;10.57;;;;;;;9.10;100.00;101944.75;4966299;28;20042;-72
2021/10/14 00:45:15;;;;;;;15.63;9.85;;;;;;;9.09;100.00;101943.06;4949995;28;20081;-73
2021/10/14 00:47:41;;;;;;;14.05;10.85;;;;;;;9.09;100.00;101940.44;4949905;28;20039;-72
2021/10/14 00:50:08;;;;;;;19.25;11.00;;;;;;;9.10;100.00;101941.31;4950584;28;20035;-73
2021/10/14 00:52:36;;;;;;;15.85;10.60;;;;;;;9.09;100.00;101929.97;4963866;28;20042;-74
2021/10/14 00:55:03;;;;;;;16.95;10.95;;;;;;;9.13;100.00;101934.03;4947209;28;20527;-73
2021/10/14 00:57:29;;;;;;;14.63;10.77;;;;;;;9.11;100.00;101928.06;4937676;28;20081;-73
2021/10/14 00:59:55;;;;;;;17.17;10.52;;;;;;;9.14;100.00;101934.91;4971865;28;20034;-71
2021/10/14 01:02:21;;;;;;;18.23;11.18;;;;;;;9.11;100.00;101940.34;4921736;28;20117;-71
2021/10/14 01:04:47;;;;;;;12.77;10.25;;;;;;;9.14;100.00;101932.28;4958587;28;20447;-72
2021/10/14 01:07:12;;;;;;;12.38;9.35;;;;;;;9.14;100.00;101927.88;4940529;28;20035;-73
2021/10/14 01:09:40;;;;;;;17.48;11.65;;;;;;;9.19;100.00;101927.53;4965434;28;20117;-73
2021/10/14 01:12:06;;;;;;;20.75;11.55;;;;;;;9.20;100.00;101924.00;4933712;29;20552;-72
2021/10/14 01:14:32;;;;;;;15.77;11.00;;;;;;;9.22;100.00;101919.47;4934326;28;20619;-74
2021/10/14 01:16:58;;;;;;;19.48;10.90;;;;;;;9.19;100.00;101917.06;4917642;28;20027;-70
2021/10/14 01:19:24;;;;;;;21.15;11.25;;;;;;;9.23;100.00;101922.91;4916947;29;20070;-73
2021/10/14 01:21:50;;;;;;;14.93;10.93;;;;;;;9.21;100.00;101914.34;4931970;29;20489;-72
2021/10/14 01:24:17;;;;;;;15.57;11.43;;;;;;;9.23;100.00;101925.53;4949215;28;20062;-71
2021/10/14 01:26:42;;;;;;;16.90;11.57;;;;;;;9.22;100.00;101916.84;4935504;28;20508;-72
2021/10/14 01:29:08;;;;;;;24.15;13.43;;;;;;;9.29;100.00;101925.13;4968399;28;20053;-73
2021/10/14 01:31:35;;;;;;;22.88;13.52;;;;;;;9.31;100.00;101918.00;4917573;29;20031;-71
2021/10/14 01:34:01;;;;;;;22.30;13.35;;;;;;;9.29;100.00;101923.34;4951793;28;20070;-72
2021/10/14 01:36:27;;;;;;;18.92;13.05;;;;;;;9.28;100.00;101924.28;4951630;28;20027;-71
2021/10/14 01:38:52;;;;;;;20.20;13.63;;;;;;;9.30;100.00;101929.41;4936604;29;20836;-71
2021/10/14 01:41:18;;;;;;;25.95;14.93;;;;;;;9.29;100.00;101925.13;4933103;29;20054;-71
2021/10/14 01:43:44;;;;;;;26.77;14.10;;;;;;;9.29;100.00;101927.75;4968943;28;20034;-71
2021/10/14 01:46:10;;;;;;;26.45;15.07;;;;;;;9.40;100.00;101924.34;4973835;28;20067;-73
2021/10/14 01:48:36;;;;;;;24.50;14.77;;;;;;;9.39;100.00;101926.13;4943162;28;20532;-71
2021/10/14 01:51:03;;;;;;;21.70;14.52;;;;;;;9.37;100.00;101920.16;4917836;29;20038;-71
2021/10/14 01:53:28;;;;;;;18.95;14.10;;;;;;;9.40;100.00;101919.97;4968319;28;20034;-72
2021/10/14 01:55:54;;;;;;;33.30;14.82;;;;;;;9.44;100.00;101920.59;4932083;28;20027;-72
2021/10/14 01:58:20;;;;;;;23.02;13.93;;;;;;;9.38;100.00;101921.00;4959396;28;20492;-71
2021/10/14 02:00:50;;;;;;;23.90;13.45;;;;;;;9.42;100.00;101925.06;4964924;28;20077;-71
2021/10/14 02:03:16;;;;;;;22.95;14.57;;;;;;;9.37;100.00;101925.41;4925540;28;20051;-71
2021/10/14 02:05:42;;;;;;;21.63;12.82;;;;;;;9.44;100.00;101929.25;4949220;28;20051;-71
2021/10/14 02:08:07;;;;;;;20.98;13.98;;;;;;;9.45;100.00;101933.53;4968040;28;20407;-72
2021/10/14 02:10:33;;;;;;;22.05;12.98;;;;;;;9.43;100.00;101929.38;4936337;28;20038;-71
2021/10/14 02:12:59;;;;;;;22.27;12.27;;;;;;;9.46;100.00;101932.59;4935581;28;20047;-73
2021/10/14 02:15:25;;;;;;;17.40;12.32;;;;;;;9.50;100.00;101934.06;4951524;28;20042;-70
2021/10/14 02:17:51;;;;;;;22.25;12.57;;;;;;;9.49;100.00;101932.41;4951644;28;20065;-71
2021/10/14 02:20:17;;;;;;;21.95;12.45;;;;;;;9.49;100.00;101929.78;4968989;28;20035;-70
2021/10/14 02:22:42;;;;;;;17.58;12.02;;;;;;;9.48;100.00;101927.25;4964540;28;20075;-71
2021/10/14 02:25:10;;;;;;;19.02;11.85;;;;;;;9.48;100.00;101925.47;4942995;28;20060;-71
2021/10/14 02:27:36;;;;;;;17.50;11.20;;;;;;;9.49;100.00;101931.53;4928944;29;20058;-71
2021/10/14 02:30:06;;;;;;;15.57;11.13;;;;;;;9.54;100.00;101924.19;4919994;29;20035;-71
2021/10/14 02:32:32;;;;;;;21.50;12.45;;;;;;;9.54;100.00;101921.56;4950197;28;20507;-72
2021/10/14 02:34:57;;;;;;;19.67;11.85;;;;;;;9.51;100.00;101925.25;4935117;28;20027;-71
2021/10/14 02:37:24;;;;;;;17.35;11.93;;;;;;;9.54;100.00;101922.41;4935555;28;20045;-72
2021/10/14 02:39:50;;;;;;;17.27;10.43;;;;;;;9.53;100.00;101919.88;4962532;28;20133;-71
2021/10/14 02:42:16;;;;;;;16.80;10.18;;;;;;;9.51;100.00;101913.94;4968209;28;20053;-71
2021/10/14 02:44:42;;;;;;;13.93;9.77;;;;;;;9.52;100.00;101915.63;4969231;28;20034;-71
2021/10/14 02:47:08;;;;;;;11.45;8.63;;;;;;;9.53;100.00;101919.88;4957868;28;20039;-71
2021/10/14 02:49:33;;;;;;;13.15;9.25;;;;;;;9.54;100.00;101916.34;4949899;29;20046;-71
2021/10/14 02:51:59;;;;;;;14.07;9.40;;;;;;;9.55;100.00;101918.84;4958551;28;20042;-71
2021/10/14 02:54:24;;;;;;;15.45;9.38;;;;;;;9.58;100.00;101927.44;4931268;28;20030;-72
2021/10/14 02:56:50;;;;;;;23.63;10.07;;;;;;;9.58;100.00;101924.81;4951409;28;20047;-70
2021/10/14 02:59:15;;;;;;;17.13;10.93;;;;;;;9.62;100.00;101921.03;4934244;29;20501;-71
2021/10/14 03:01:41;;;;;;;16.83;12.25;;;;;;;9.63;100.00;101920.91;4933166;28;20491;-71
2021/10/14 03:04:06;;;;;;;19.60;11.95;;;;;;;9.63;100.00;101917.47;4969972;28;20110;-71
2021/10/14 03:06:31;;;;;;;18.40;12.82;;;;;;;9.63;100.00;101918.28;4961033;28;20671;-72
2021/10/14 03:08:57;;;;;;;22.05;12.32;;;;;;;9.63;100.00;101910.44;4944754;28;20074;-71
2021/10/14 03:11:22;;;;;;;21.35;12.65;;;;;;;9.64;100.00;101917.34;4964869;28;20121;-71
2021/10/14 03:13:48;;;;;;;20.83;12.80;;;;;;;9.67;100.00;101921.53;4928357;28;20042;-72
2021/10/14 03:16:13;;;;;;;31.30;14.70;;;;;;;9.68;100.00;101912.72;4954196;28;20035;-71
2021/10/14 03:18:39;;;;;;;22.65;14.63;;;;;;;9.66;100.00;101907.59;4972184;28;20512;-71
2021/10/14 03:21:04;;;;;;;23.42;13.85;;;;;;;9.68;100.00;101908.31;4970933;28;20042;-71
2021/10/14 03:23:30;;;;;;;20.50;12.77;;;;;;;9.71;100.00;101909.88;4943912;28;20180;-71
2021/10/14 03:25:55;;;;;;;22.95;13.25;;;;;;;9.72;100.00;101909.78;4960219;28;20043;-72
2021/10/14 03:28:21;;;;;;;20.50;12.82;;;;;;;9.76;100.00;101902.53;4945074;28;20044;-72
2021/10/14 03:30:47;;;;;;;19.23;12.63;;;;;;;9.75;100.00;101901.66;4962502;28;20038;-71
2021/10/14 03:33:12;;;;;;;16.42;12.07;;;;;;;9.75;100.00;101900.84;4924548;28;20448;-72
2021/10/14 03:35:38;;;;;;;19.60;12.30;;;;;;;9.75;100.00;101899.03;4954385;28;20073;-72
2021/10/14 03:38:03;;;;;;;23.75;11.77;;;;;;;9.79;100.00;101904.91;4937925;28;20089;-71
2021/10/14 03:40:29;;;;;;;21.88;10.75;;;;;;;9.84;100.00;101900.16;4932652;28;20116;-71
2021/10/14 03:42:55;;;;;;;24.88;11.07;;;;;;;9.84;100.00;101904.56;4972257;28;20109;-71
2021/10/14 03:45:21;;;;;;;27.88;10.95;;;;;;;9.85;100.00;101901.00;4965980;28;20087;-71
2021/10/14 03:47:47;;;;;;;17.05;10.30;;;;;;;9.88;100.00;101898.97;4946972;29;20043;-71
2021/10/14 03:50:13;;;;;;;22.92;10.35;;;;;;;9.89;100.00;101899.84;4941795;29;20035;-71
2021/10/14 03:52:38;;;;;;;13.43;9.77;;;;;;;9.87;100.00;101899.94;4955555;28;20070;-70
2021/10/14 03:55:05;;;;;;;18.13;9.75;;;;;;;9.87;100.00;101899.94;4951657;28;20042;-71
2021/10/14 03:57:31;;;;;;;14.50;9.18;;;;;;;9.90;100.00;101904.94;4950823;28;20077;-71
2021/10/14 03:59:56;;;;;;;16.50;9.27;;;;;;;9.88;100.00;101903.38;4971332;28;20477;-71
2021/10/14 04:02:21;;;;;;;15.73;9.38;;;;;;;9.88;100.00;101898.16;4937940;28;20035;-71
2021/10/14 04:04:47;;;;;;;20.75;9.23;;;;;;;9.93;100.00;101902.09;4940892;29;20488;-72
2021/10/14 04:07:12;;;;;;;12.60;8.38;;;;;;;9.90;100.00;101896.25;4934221;29;20058;-72
2021/10/14 04:09:38;;;;;;;12.02;7.50;;;;;;;9.98;100.00;101896.50;4935113;28;20480;-72
2021/10/14 04:12:03;;;;;;;11.93;7.05;;;;;;;10.05;100.00;101895.09;4971314;28;20376;-72
2021/10/14 04:14:29;;;;;;;12.15;6.57;;;;;;;10.02;100.00;101895.34;4922510;28;20054;-72
2021/10/14 04:16:55;;;;;;;12.70;6.40;;;;;;;10.01;100.00;101895.47;4914929;28;20114;-72
2021/10/14 04:19:20;;;;;;;11.07;5.93;;;;;;;10.00;100.00;101885.91;4951229;29;20035;-72
2021/10/14 04:21:47;;;;;;;9.10;5.72;;;;;;;10.05;100.00;101889.03;4931074;28;20120;-73
2021/10/14 04:24:13;;;;;;;7.43;5.75;;;;;;;10.06;100.00;101893.34;4947089;28;20031;-72
2021/10/14 04:26:38;;;;;;;6.40;4.35;;;;;;;10.08;100.00;101887.03;4970479;28;20042;-73
2021/10/14 04:29:04;;;;;;;8.70;4.10;;;;;;;10.14;100.00;101896.22;4953020;28;20562;-72
2021/10/14 04:31:29;;;;;;;7.07;3.08;;;;;;;10.15;100.00;101887.38;4954251;28;20202;-71
2021/10/14 04:33:55;;;;;;;8.85;2.45;;;;;;;10.16;100.00;101891.69;4927965;28;20043;-71
2021/10/14 04:36:20;;;;;;;9.25;2.65;;;;;;;10.14;100.00;101888.34;4959475;28;20027;-71
2021/10/14 04:38:46;;;;;;;5.57;2.10;;;;;;;10.14;100.00;101880.47;4934093;29;20073;-70
2021/10/14 04:41:12;;;;;;;2.85;2.20;;;;;;;10.21;100.00;101889.56;4933873;29;20050;-72
2021/10/14 04:43:37;;;;;;;2.92;1.70;;;;;;;10.22;100.00;101887.75;4934544;29;20043;-71
2021/10/14 04:46:03;;;;;;;2.25;2.00;;;;;;;10.21;100.00;101881.69;4931972;28;20104;-71
2021/10/14 04:48:28;;;;;;;5.35;2.05;;;;;;;10.24;100.00;101883.22;4918782;28;20049;-71
2021/10/14 04:50:54;;;;;;;2.88;1.88;;;;;;;10.25;100.00;101892.78;4970150;28;20045;-71
2021/10/14 04:53:20;;;;;;;5.13;2.10;;;;;;;10.25;100.00;101884.91;4942924;29;20481;-71
2021/10/14 04:55:45;;;;;;;9.15;2.63;;;;;;;10.23;100.00;101882.41;4961652;28;20084;-71
2021/10/14 04:58:10;;;;;;;6.43;3.30;;;;;;;10.41;100.00;101881.97;4968680;28;20039;-72
2021/10/14 05:00:36;;;;;;;7.10;3.40;;;;;;;10.33;100.00;101872.91;4935464;28;20130;-73
2021/10/14 05:03:02;;;;;;;7.93;2.65;;;;;;;10.32;100.00;101875.63;4965102;28;20500;-70
2021/10/14 05:05:27;;;;;;;7.70;2.88;;;;;;;10.36;100.00;101868.38;4987111;28;20042;-71
2021/10/14 05:07:53;;;;;;;12.13;4.22;;;;;;;10.31;100.00;101871.38;4954287;28;20038;-70
2021/10/14 05:10:18;;;;;;;7.55;3.58;;;;;;;10.30;100.00;101874.88;4966256;28;20033;-70
2021/10/14 05:12:44;;;;;;;9.75;4.20;;;;;;;10.29;100.00;101874.06;4947440;29;20157;-70
2021/10/14 05:15:11;;;;;;;11.82;3.88;;;;;;;10.37;100.00;101875.31;4918066;29;20436;-71
2021/10/14 05:17:37;;;;;;;14.90;4.72;;;;;;;10.40;100.00;101870.66;4960954;28;20074;-70
2021/10/14 05:20:07;;;;;;;8.48;4.60;;;;;;;10.42;100.00;101870.56;4950784;29;20063;-71
2021/10/14 05:22:33;;;;;;;9.60;5.10;;;;;;;10.38;100.00;101862.06;4965845;28;20038;-70
2021/10/14 05:24:58;;;;;;;19.30;6.50;;;;;;;10.41;100.00;101859.19;4973324;28;20037;-70
2021/10/14 05:27:24;;;;;;;25.02;5.88;;;;;;;10.47;100.00;101861.38;4940056;28;20550;-71
2021/10/14 05:29:50;;;;;;;20.17;6.85;;;;;;;10.49;100.00;101864.72;4963392;28;20046;-70
2021/10/14 05:32:15;;;;;;;27.27;11.00;;;;;;;10.52;100.00;101861.00;4950002;28;20039;-71
2021/10/14 05:34:41;;;;;;;37.60;11.35;;;;;;;10.60;100.00;101860.41;4917624;29;20793;-71
2021/10/14 05:37:07;;;;;;;19.00;9.40;;;;;;;10.56;100.00;101859.81;4919675;28;20198;-70
2021/10/14 05:39:32;;;;;;;34.88;11.23;;;;;;;10.58;100.00;101865.78;4982869;28;20132;-71
2021/10/14 05:41:58;;;;;;;30.45;11.95;;;;;;;10.60;100.00;101853.38;4971055;28;20488;-70
2021/10/14 05:44:23;;;;;;;38.78;12.35;;;;;;;10.65;100.00;101855.66;4938647;28;20057;-70
2021/10/14 05:46:49;;;;;;;44.03;13.38;;;;;;;10.66;100.00;101860.78;4951253;28;20038;-70
2021/10/14 05:49:14;;;;;;;31.50;12.88;;;;;;;10.69;100.00;101860.53;4969813;28;20503;-71
2021/10/14 05:51:40;;;;;;;30.63;12.43;;;;;;;10.68;100.00;101851.00;4968675;28;20035;-71
2021/10/14 05:54:06;;;;;;;37.20;14.00;;;;;;;10.71;100.00;101857.78;4964158;28;20161;-71
2021/10/14 05:56:31;;;;;;;37.63;14.15;;;;;;;10.75;100.00;101861.81;4952007;28;20404;-71
2021/10/14 05:58:57;;;;;;;30.70;12.75;;;;;;;10.74;100.00;101857.56;4952583;28;20497;-73
2021/10/14 06:01:22;;;;;;;37.45;14.65;;;;;;;10.79;100.00;101859.81;4941188;28;20050;-73
2021/10/14 06:03:48;;;;;;;37.90;14.15;;;;;;;10.80;100.00;101864.09;4936449;28;20054;-72
2021/10/14 06:06:14;;;;;;;30.73;12.70;;;;;;;10.81;100.00;101855.25;4947901;28;20035;-71
2021/10/14 06:08:39;;;;;;;29.45;13.73;;;;;;;10.76;100.00;101860.06;4951992;28;20121;-71
2021/10/14 06:11:05;;;;;;;25.67;13.20;;;;;;;10.75;100.00;101853.13;4952301;28;20073;-71
2021/10/14 06:13:30;;;;;;;31.35;12.73;;;;;;;10.77;100.00;101854.66;4969987;28;20026;-71
2021/10/14 06:15:56;;;;;;;28.83;12.98;;;;;;;10.75;100.00;101859.19;4987723;28;20046;-72
2021/10/14 06:18:21;;;;;;;31.55;12.68;;;;;;;10.84;100.00;101858.47;4956747;28;20035;-72
2021/10/14 06:20:47;;;;;;;29.33;12.57;;;;;;;10.81;100.00;101860.50;4922468;28;20042;-72
2021/10/14 06:23:13;;;;;;;22.58;11.77;;;;;;;10.78;100.00;101858.16;4952375;28;20404;-72
2021/10/14 06:25:38;;;;;;;27.15;11.30;;;;;;;10.79;100.00;101851.94;4968423;28;20047;-74
2021/10/14 06:28:04;;;;;;;24.88;11.45;;;;;;;10.83;100.00;101858.59;4951242;28;20027;-73
2021/10/14 06:30:32;;;;;;;33.05;11.35;;;;;;;10.90;100.00;101854.53;4944179;28;20759;-70
2021/10/14 06:32:58;;;;;;;23.83;10.88;;;;;;;10.87;100.00;101860.88;4939789;28;20550;-72
2021/10/14 06:35:23;;;;;;;31.17;11.73;;;;;;;10.86;100.00;101853.13;4973291;28;20040;-70
2021/10/14 06:37:49;;;;;;;26.83;10.50;;;;;;;10.88;100.00;101859.91;4951351;28;20696;-73
2021/10/14 06:40:14;;;;;;;22.45;10.70;;;;;;;10.85;100.00;101854.06;4949779;28;20035;-72
2021/10/14 06:42:40;;;;;;;24.25;11.40;;;;;;;10.86;100.00;101853.13;4954992;28;20129;-74
2021/10/14 06:45:09;;;;;;;33.75;10.63;;;;;;;10.89;100.00;101858.13;4955200;28;20042;-72
2021/10/14 06:47:35;;;;;;;28.50;11.90;;;;;;;10.91;100.00;101858.84;4954593;28;20057;-72
2021/10/14 06:50:02;;;;;;;26.33;11.38;;;;;;;10.88;100.00;101862.53;4955036;28;20038;-74
2021/10/14 06:52:28;;;;;;;22.67;12.07;;;;;;;10.92;100.00;101860.50;4938938;28;20511;-70
2021/10/14 06:54:54;;;;;;;28.08;11.95;;;;;;;10.94;100.00;101858.59;4938883;28;20034;-73
2021/10/14 06:57:19;;;;;;;22.65;11.00;;;;;;;10.97;100.00;101857.53;4938784;28;20422;-72
2021/10/14 06:59:45;;;;;;;25.25;12.05;;;;;;;11.00;100.00;101857.25;4936912;29;20035;-70
2021/10/14 07:02:10;;;;;;;23.15;11.77;;;;;;;11.04;100.00;101856.09;4940626;28;20034;-73
2021/10/14 07:04:36;;;;;;;20.58;12.35;;;;;;;11.02;100.00;101856.22;4956416;28;20117;-72
2021/10/14 07:07:01;;;;;;;23.55;11.43;;;;;;;11.04;100.00;101853.47;4953649;28;20035;-70
2021/10/14 07:09:27;;;;;;;32.45;12.85;;;;;;;11.02;100.00;101853.59;4947364;28;20038;-73
2021/10/14 07:11:57;;;;;;;24.77;11.18;;;;;;;11.12;100.00;101853.69;4942162;28;20141;-72
2021/10/14 07:14:22;;;;;;;19.08;11.40;;;;;;;11.19;100.00;101854.00;4955189;28;20062;-72
2021/10/14 07:16:49;;;;;;;23.00;11.00;;;;;;;11.29;100.00;101852.31;4940899;28;20117;-72
2021/10/14 07:19:15;;;;;;;26.42;10.85;;;;;;;11.33;100.00;101850.28;4954901;28;20046;-73
2021/10/14 07:21:40;;;;;;;20.52;9.80;;;;;;;11.29;100.00;101847.06;4942335;28;20047;-73
2021/10/14 07:24:06;;;;;;;24.83;9.90;;;;;;;11.25;100.00;101849.09;4954499;28;20038;-73
2021/10/14 07:26:31;;;;;;;22.73;9.23;;;;;;;11.34;100.00;101841.44;4948761;28;20559;-72
2021/10/14 07:28:57;;;;;;;18.33;9.75;;;;;;;11.38;100.00;101845.50;4954070;28;20066;-72
2021/10/14 07:31:23;;;;;;;15.73;8.38;;;;;;;11.45;100.00;101858.00;4953286;28;20485;-70
2021/10/14 07:33:49;;;;;;;13.75;8.90;;;;;;;11.50;100.00;101853.19;4935832;29;20051;-73
2021/10/14 07:36:15;;;;;;;23.83;8.60;;;;;;;11.61;100.00;101856.75;4934501;28;20102;-73
2021/10/14 07:38:40;;;;;;;15.63;8.45;;;;;;;11.62;100.00;101861.88;4919161;28;20515;-71
2021/10/14 07:41:06;;;;;;;17.45;8.18;;;;;;;11.64;100.00;101864.34;4947928;28;20504;-73
2021/10/14 07:43:31;;;;;;;14.45;7.93;;;;;;;11.69;100.00;101859.56;4935635;28;20034;-73
2021/10/14 07:45:57;;;;;;;16.23;8.38;;;;;;;11.67;100.00;101862.31;4941247;29;20031;-73
2021/10/14 07:48:22;;;;;;;19.20;8.10;;;;;;;11.66;100.00;101865.09;4918826;29;20031;-73
2021/10/14 07:50:48;;;;;;;13.02;7.28;;;;;;;11.66;100.00;101867.72;4928576;28;20030;-73
2021/10/14 07:53:16;;;;;;;14.98;8.20;;;;;;;11.68;100.00;101866.63;4976211;28;20023;-72
2021/10/14 07:55:43;;;;;;;16.38;7.68;;;;;;;11.65;100.00;101873.94;4969026;28;20034;-73
2021/10/14 07:58:09;;;;;;;19.90;7.93;;;;;;;11.64;100.00;101873.09;4950813;28;20404;-75
2021/10/14 08:00:36;;;;;;;15.75;8.18;;;;;;;11.72;100.00;101875.09;4934611;28;20046;-73
2021/10/14 08:03:02;;;;;;;15.20;7.35;;;;;;;11.73;100.00;101875.91;4952045;29;20031;-73
2021/10/14 08:05:27;;;;;;;15.98;7.47;;;;;;;11.84;100.00;101871.44;4943202;28;20548;-73
2021/10/14 08:07:53;;;;;;;18.52;7.97;;;;;;;11.90;100.00;101875.38;4966956;28;20137;-72
2021/10/14 08:10:18;;;;;;;29.20;8.05;;;;;;;11.87;100.00;101873.00;4952743;28;20492;-73
2021/10/14 08:12:44;;;;;;;21.10;7.40;;;;;;;11.93;100.00;101882.19;4951442;28;20139;-73
2021/10/14 08:15:10;;;;;;;18.35;7.85;;;;;;;11.87;100.00;101865.09;4918821;29;20158;-72
2021/10/14 08:17:37;;;;;;;17.85;7.95;;;;;;;11.89;100.00;101868.44;4933905;28;20400;-72
2021/10/14 08:20:05;;;;;;;16.20;8.02;;;;;;;11.92;100.00;101870.00;4918703;29;20481;-73
2021/10/14 08:22:30;;;;;;;18.38;8.48;;;;;;;11.94;100.00;101871.56;4934220;29;20039;-73
2021/10/14 08:24:58;;;;;;;17.33;8.38;;;;;;;11.95;100.00;101873.22;4939667;28;20116;-72
2021/10/14 08:27:25;;;;;;;18.38;8.40;;;;;;;12.04;100.00;101875.09;4961782;28;20035;-72
2021/10/14 08:29:50;;;;;;;22.23;8.85;;;;;;;12.06;100.00;101872.31;4937758;28;20038;-73
2021/10/14 08:32:16;;;;;;;19.15;8.43;;;;;;;12.11;100.00;101885.94;4953417;28;20034;-71
2021/10/14 08:34:42;;;;;;;18.58;8.77;;;;;;;12.14;100.00;101875.13;4930909;29;20047;-72
2021/10/14 08:37:07;;;;;;;17.73;8.45;;;;;;;12.20;100.00;101868.53;4941720;28;20081;-72
2021/10/14 08:39:33;;;;;;;18.85;7.65;;;;;;;12.17;100.00;101877.53;4928206;29;20413;-72
2021/10/14 08:41:58;;;;;;;20.05;7.97;;;;;;;12.17;100.00;101879.31;4945168;28;20663;-70
2021/10/14 08:44:26;;;;;;;18.80;7.40;;;;;;;12.19;100.00;101883.47;4952194;28;20045;-69
2021/10/14 08:46:55;;;;;;;19.10;8.30;;;;;;;12.30;100.00;101879.94;4952194;28;20061;-72
2021/10/14 08:49:22;;;;;;;12.60;7.45;;;;;;;12.37;100.00;101880.25;4947703;28;20055;-70
2021/10/14 08:51:49;;;;;;;12.52;7.53;;;;;;;12.43;100.00;101885.84;4933615;29;20042;-72
2021/10/14 08:54:15;;;;;;;16.63;6.82;;;;;;;12.49;100.00;101881.00;4942139;28;20046;-73
2021/10/14 08:56:45;;;;;;;9.85;6.93;;;;;;;12.50;100.00;101880.88;4964815;28;20043;-73
2021/10/14 08:59:12;;;;;;;15.63;6.72;;;;;;;12.53;100.00;101879.78;4917806;29;20042;-72
2021/10/14 09:01:40;;;;;;;11.98;6.18;;;;;;;12.54;100.00;101877.00;4950495;28;20027;-73
2021/10/14 09:04:15;;;;;;;17.35;7.00;;;;;;;12.53;100.00;101875.34;4968622;28;20034;-71
2021/10/14 09:06:41;;;;;;;10.95;5.80;;;;;;;12.56;100.00;101869.81;4956273;28;20043;-72
2021/10/14 09:09:07;;;;;;;13.98;6.15;;;;;;;12.65;100.00;101876.09;4931183;28;20093;-72
2021/10/14 09:11:33;;;;;;;13.90;5.85;;;;;;;12.62;100.00;101868.44;4962675;28;20539;-70
2021/10/14 09:14:04;;;;;;;17.35;6.45;;;;;;;12.76;100.00;101872.53;4932608;28;20592;-71
2021/10/14 09:16:35;;;;;;;12.30;5.13;;;;;;;12.75;100.00;101876.13;4935543;28;20029;-75
2021/10/14 09:19:13;;;;;;;13.32;5.63;;;;;;;12.76;100.00;101868.09;4935838;28;20795;-71
2021/10/14 09:21:41;;;;;;;14.95;5.10;;;;;;;12.86;100.00;101857.59;4952297;28;20046;-73
2021/10/14 09:24:25;;;;;;;5.82;3.67;;;;;;;12.84;100.00;101868.25;4933396;28;20104;-72
2021/10/14 09:26:52;;;;;;;7.75;3.45;;;;;;;12.86;100.00;101857.59;4969206;28;20526;-71
2021/10/14 09:29:22;;;;;;;8.30;3.58;;;;;;;12.92;100.00;101857.06;4943573;28;20063;-74
2021/10/14 09:31:50;;;;;;;8.52;3.40;;;;;;;12.83;100.00;101861.34;4932977;29;20039;-74
2021/10/14 09:34:26;;;;;;;9.07;2.95;;;;;;;12.86;100.00;101868.13;4950484;28;20067;-73
2021/10/14 09:36:52;;;;;;;6.88;2.80;;;;;;;12.97;100.00;101864.56;4933330;28;20503;-74
2021/10/14 09:39:19;;;;;;;6.03;2.35;;;;;;;13.02;100.00;101868.44;4964143;28;20579;-73
2021/10/14 09:41:45;;;;;;;5.75;2.42;;;;;;;13.08;100.00;101868.88;4968416;28;20030;-73
2021/10/14 09:44:15;;;;;;;7.80;2.67;;;;;;;13.08;100.00;101861.00;4952280;28;20045;-74
2021/10/14 09:46:56;;;;;;;5.65;2.20;;;;;;;13.08;100.00;101868.88;4918856;28;20049;-74
2021/10/14 09:49:33;;;;;;;4.47;1.75;;;;;;;12.94;100.00;101868.31;4935933;28;20035;-74
2021/10/14 09:52:01;;;;;;;6.20;1.73;;;;;;;12.79;100.00;101867.84;4948851;28;20042;-72
2021/10/14 09:54:30;;;;;;;7.32;1.80;;;;;;;12.80;100.00;101871.28;4928243;28;20042;-73
2021/10/14 09:56:57;;;;;;;3.40;1.23;;;;;;;12.80;100.00;101879.19;4983122;28;20037;-73
2021/10/14 09:59:23;;;;;;;4.25;1.60;;;;;;;12.75;100.00;101876.97;4943411;28;20888;-71
2021/10/14 10:01:54;;;;;;;5.80;1.80;;;;;;;12.73;100.00;101873.63;4950987;28;20039;-72
2021/10/14 10:04:29;;;;;;;4.03;1.50;;;;;;;12.71;100.00;101872.09;4936347;28;20043;-72
2021/10/14 10:06:57;;;;;;;3.42;1.70;;;;;;;12.68;100.00;101867.94;4932135;28;20099;-73
2021/10/14 10:09:25;;;;;;;3.58;1.67;;;;;;;12.68;100.00;101862.66;4952056;28;20035;-72
2021/10/14 10:11:55;;;;;;;1.92;1.80;;;;;;;12.66;100.00;101864.59;4952235;28;20066;-73
2021/10/14 10:14:23;;;;;;;2.83;2.30;;;;;;;12.69;100.00;101860.88;4945117;29;20031;-72
2021/10/14 10:16:58;;;;;;;8.45;2.40;;;;;;;12.61;100.00;101870.25;4954468;28;20119;-74
2021/10/14 10:19:50;;;;;;;6.63;2.50;;;;;;;12.56;100.00;101859.28;4938918;28;20480;-71
2021/10/14 10:22:34;;;;;;;5.97;2.60;;;;;;;12.52;100.00;101855.25;4941705;28;20145;-73
2021/10/14 10:25:15;;;;;;;7.32;2.80;;;;;;;12.43;100.00;101856.03;4946866;28;20083;-74
2021/10/14 10:27:41;;;;;;;7.82;3.45;;;;;;;12.43;100.00;101851.63;4970842;28;20042;-72
2021/10/14 10:30:06;;;;;;;8.32;3.22;;;;;;;12.45;100.00;101854.09;4958504;28;20042;-70
2021/10/14 10:32:42;;;;;;;7.60;2.90;;;;;;;12.47;100.00;101854.84;4954036;28;20049;-71
2021/10/14 10:35:10;;;;;;;7.95;2.95;;;;;;;12.49;100.00;101852.91;4936833;28;20147;-73
2021/10/14 10:37:40;;;;;;;8.95;3.30;;;;;;;12.62;100.00;101845.63;4955260;28;20034;-72
2021/10/14 10:40:24;;;;;;;7.10;3.35;;;;;;;12.83;100.00;101845.53;4970668;28;20031;-74
2021/10/14 10:43:04;;;;;;;6.22;3.80;;;;;;;12.77;100.00;101837.31;4988515;28;20035;-73
2021/10/14 10:45:55;;;;;;;5.80;3.65;;;;;;;12.77;100.00;101839.97;4953685;28;20093;-72
2021/10/14 10:48:35;;;;;;;5.68;3.78;;;;;;;12.71;100.00;101838.69;4928818;28;20062;-73
2021/10/14 10:51:01;;;;;;;7.40;4.07;;;;;;;12.65;100.00;101832.16;4953622;28;20034;-71
2021/10/14 10:53:40;;;;;;;8.88;5.03;;;;;;;12.58;100.00;101841.59;4970167;28;20118;-71
2021/10/14 10:56:08;;;;;;;6.40;4.50;;;;;;;12.49;100.00;101838.88;4975022;28;20146;-70
2021/10/14 10:58:46;;;;;;;7.60;5.18;;;;;;;12.49;100.00;101837.13;4950599;28;20046;-73
2021/10/14 11:01:14;;;;;;;17.55;5.80;;;;;;;12.43;100.00;101846.38;4920686;29;20046;-73
2021/10/14 11:03:52;;;;;;;8.18;5.32;;;;;;;12.33;100.00;101834.94;4940495;28;20512;-73
2021/10/14 11:06:18;;;;;;;8.02;5.75;;;;;;;12.32;100.00;101829.81;4972822;28;20174;-71
2021/10/14 11:08:44;;;;;;;8.43;6.25;;;;;;;12.31;100.00;101829.00;4923273;28;20122;-73
2021/10/14 11:11:18;;;;;;;6.13;5.47;;;;;;;12.35;100.00;101834.81;4955347;28;20046;-73